sensor_id;sensor_type;location;lat;lon;timestamp;temperature;humidity
418;DHT22;49;48.530;9.200;2022-12-07T00:01:08;11.40;54.80
418;DHT22;49;48.530;9.200;2022-12-07T00:03:36;11.30;46.30
418;DHT22;49;48.530;9.200;2022-12-07T00:06:04;11.30;52.60
418;DHT22;49;48.530;9.200;2022-12-07T00:08:33;10.90;54.10
418;DHT22;49;48.530;9.200;2022-12-07T00:11:03;10.70;56.20
418;DHT22;49;48.530;9.200;2022-12-07T00:13:30;10.80;49.20
418;DHT22;49;48.530;9.200;2022-12-07T00:16:00;11.20;49.60
418;DHT22;49;48.530;9.200;2022-12-07T00:18:27;11.60;59.10
418;DHT22;49;48.530;9.200;2022-12-07T00:20:59;12.10;56.60
418;DHT22;49;48.530;9.200;2022-12-07T00:23:27;12.20;50.80
418;DHT22;49;48.530;9.200;2022-12-07T00:25:54;12.50;49.30
418;DHT22;49;48.530;9.200;2022-12-07T00:28:22;12.50;43.60
418;DHT22;49;48.530;9.200;2022-12-07T00:30:49;12.80;50.40
418;DHT22;49;48.530;9.200;2022-12-07T00:33:16;12.70;41.30
418;DHT22;49;48.530;9.200;2022-12-07T00:35:43;12.50;42.70
418;DHT22;49;48.530;9.200;2022-12-07T00:38:10;12.60;48.10
418;DHT22;49;48.530;9.200;2022-12-07T00:40:37;12.70;46.20
418;DHT22;49;48.530;9.200;2022-12-07T00:43:04;12.80;45.50
418;DHT22;49;48.530;9.200;2022-12-07T00:45:32;12.80;46.40
418;DHT22;49;48.530;9.200;2022-12-07T00:47:59;12.80;43.40
418;DHT22;49;48.530;9.200;2022-12-07T00:50:26;12.80;44.80
418;DHT22;49;48.530;9.200;2022-12-07T00:52:53;12.30;42.50
418;DHT22;49;48.530;9.200;2022-12-07T00:55:20;12.40;41.30
418;DHT22;49;48.530;9.200;2022-12-07T00:57:46;12.60;47.00
418;DHT22;49;48.530;9.200;2022-12-07T01:00:14;12.60;39.70
418;DHT22;49;48.530;9.200;2022-12-07T01:02:42;12.60;47.70
418;DHT22;49;48.530;9.200;2022-12-07T01:05:09;12.80;45.30
418;DHT22;49;48.530;9.200;2022-12-07T01:07:36;12.60;42.50
418;DHT22;49;48.530;9.200;2022-12-07T01:10:04;12.70;43.20
418;DHT22;49;48.530;9.200;2022-12-07T01:12:31;12.80;42.60
418;DHT22;49;48.530;9.200;2022-12-07T01:14:58;12.80;43.00
418;DHT22;49;48.530;9.200;2022-12-07T01:17:25;12.70;43.50
418;DHT22;49;48.530;9.200;2022-12-07T01:19:53;12.80;44.30
418;DHT22;49;48.530;9.200;2022-12-07T01:22:20;12.80;42.40
418;DHT22;49;48.530;9.200;2022-12-07T01:24:47;12.40;37.60
418;DHT22;49;48.530;9.200;2022-12-07T01:27:14;12.20;39.50
418;DHT22;49;48.530;9.200;2022-12-07T01:29:41;12.30;43.50
418;DHT22;49;48.530;9.200;2022-12-07T01:32:08;12.30;46.50
418;DHT22;49;48.530;9.200;2022-12-07T01:34:35;12.40;46.50
418;DHT22;49;48.530;9.200;2022-12-07T01:37:03;12.50;47.10
418;DHT22;49;48.530;9.200;2022-12-07T01:39:30;12.50;44.90
418;DHT22;49;48.530;9.200;2022-12-07T01:41:57;12.80;46.00
418;DHT22;49;48.530;9.200;2022-12-07T01:44:25;12.80;47.30
418;DHT22;49;48.530;9.200;2022-12-07T01:46:54;12.60;42.30
418;DHT22;49;48.530;9.200;2022-12-07T01:49:26;12.70;40.70
418;DHT22;49;48.530;9.200;2022-12-07T01:52:03;12.80;44.70
418;DHT22;49;48.530;9.200;2022-12-07T01:54:33;12.70;47.30
418;DHT22;49;48.530;9.200;2022-12-07T01:57:01;12.80;44.60
418;DHT22;49;48.530;9.200;2022-12-07T01:59:30;12.90;40.90
418;DHT22;49;48.530;9.200;2022-12-07T02:01:56;13.00;44.00
418;DHT22;49;48.530;9.200;2022-12-07T02:04:24;13.00;45.30
418;DHT22;49;48.530;9.200;2022-12-07T02:06:52;13.10;42.50
418;DHT22;49;48.530;9.200;2022-12-07T02:09:21;13.00;39.80
418;DHT22;49;48.530;9.200;2022-12-07T02:11:48;13.00;40.00
418;DHT22;49;48.530;9.200;2022-12-07T02:14:15;13.10;43.80
418;DHT22;49;48.530;9.200;2022-12-07T02:16:51;13.00;40.90
418;DHT22;49;48.530;9.200;2022-12-07T02:25:23;12.90;41.20
418;DHT22;49;48.530;9.200;2022-12-07T02:27:59;12.90;42.80
418;DHT22;49;48.530;9.200;2022-12-07T02:30:33;13.10;45.60
418;DHT22;49;48.530;9.200;2022-12-07T02:33:05;13.00;44.10
418;DHT22;49;48.530;9.200;2022-12-07T02:35:35;12.80;38.00
418;DHT22;49;48.530;9.200;2022-12-07T02:38:12;12.50;37.70
418;DHT22;49;48.530;9.200;2022-12-07T02:40:43;12.20;46.90
418;DHT22;49;48.530;9.200;2022-12-07T02:43:17;12.30;43.50
418;DHT22;49;48.530;9.200;2022-12-07T02:45:48;12.30;45.20
418;DHT22;49;48.530;9.200;2022-12-07T02:48:17;12.50;46.10
418;DHT22;49;48.530;9.200;2022-12-07T02:50:47;12.40;43.70
418;DHT22;49;48.530;9.200;2022-12-07T02:53:31;12.20;43.10
418;DHT22;49;48.530;9.200;2022-12-07T02:56:00;12.10;43.30
418;DHT22;49;48.530;9.200;2022-12-07T02:58:38;11.90;42.50
418;DHT22;49;48.530;9.200;2022-12-07T03:01:16;12.00;47.40
418;DHT22;49;48.530;9.200;2022-12-07T03:03:54;12.30;43.80
418;DHT22;49;48.530;9.200;2022-12-07T03:06:28;12.30;40.10
418;DHT22;49;48.530;9.200;2022-12-07T03:09:01;12.30;42.90
418;DHT22;49;48.530;9.200;2022-12-07T03:11:39;12.20;47.20
418;DHT22;49;48.530;9.200;2022-12-07T03:14:13;11.90;39.40
418;DHT22;49;48.530;9.200;2022-12-07T03:16:48;12.00;44.10
418;DHT22;49;48.530;9.200;2022-12-07T03:19:18;12.40;46.60
418;DHT22;49;48.530;9.200;2022-12-07T03:21:49;12.40;40.60
418;DHT22;49;48.530;9.200;2022-12-07T03:24:20;12.50;46.70
418;DHT22;49;48.530;9.200;2022-12-07T03:26:50;12.70;47.70
418;DHT22;49;48.530;9.200;2022-12-07T03:29:22;12.80;43.60
418;DHT22;49;48.530;9.200;2022-12-07T03:31:55;12.50;39.00
418;DHT22;49;48.530;9.200;2022-12-07T03:34:27;12.50;42.20
418;DHT22;49;48.530;9.200;2022-12-07T03:36:59;12.50;45.90
418;DHT22;49;48.530;9.200;2022-12-07T03:39:30;12.70;44.90
418;DHT22;49;48.530;9.200;2022-12-07T03:42:01;12.80;46.00
418;DHT22;49;48.530;9.200;2022-12-07T03:44:29;13.10;45.90
418;DHT22;49;48.530;9.200;2022-12-07T03:47:01;12.60;34.90
418;DHT22;49;48.530;9.200;2022-12-07T03:49:36;11.70;39.50
418;DHT22;49;48.530;9.200;2022-12-07T03:52:11;11.50;43.60
418;DHT22;49;48.530;9.200;2022-12-07T03:54:42;11.40;43.80
418;DHT22;49;48.530;9.200;2022-12-07T03:57:10;11.60;43.40
418;DHT22;49;48.530;9.200;2022-12-07T03:59:39;11.80;43.50
418;DHT22;49;48.530;9.200;2022-12-07T04:02:11;12.20;46.60
418;DHT22;49;48.530;9.200;2022-12-07T04:04:39;12.10;35.60
418;DHT22;49;48.530;9.200;2022-12-07T04:07:06;11.60;36.90
418;DHT22;49;48.530;9.200;2022-12-07T04:09:33;11.60;44.60
418;DHT22;49;48.530;9.200;2022-12-07T04:12:00;11.00;38.20
418;DHT22;49;48.530;9.200;2022-12-07T04:14:27;10.80;41.90
418;DHT22;49;48.530;9.200;2022-12-07T04:16:56;10.50;50.70
418;DHT22;49;48.530;9.200;2022-12-07T04:19:27;10.70;46.90
418;DHT22;49;48.530;9.200;2022-12-07T04:21:54;10.70;47.40
418;DHT22;49;48.530;9.200;2022-12-07T04:24:22;10.80;49.70
418;DHT22;49;48.530;9.200;2022-12-07T04:26:49;10.60;46.20
418;DHT22;49;48.530;9.200;2022-12-07T04:29:16;10.60;44.80
418;DHT22;49;48.530;9.200;2022-12-07T04:31:43;10.60;43.10
418;DHT22;49;48.530;9.200;2022-12-07T04:34:11;10.20;44.60
418;DHT22;49;48.530;9.200;2022-12-07T04:36:40;9.30;47.80
418;DHT22;49;48.530;9.200;2022-12-07T04:39:09;8.70;54.00
418;DHT22;49;48.530;9.200;2022-12-07T04:41:40;9.00;57.60
418;DHT22;49;48.530;9.200;2022-12-07T04:44:07;9.80;59.60
418;DHT22;49;48.530;9.200;2022-12-07T04:46:34;10.60;56.80
418;DHT22;49;48.530;9.200;2022-12-07T04:49:00;11.40;57.90
418;DHT22;49;48.530;9.200;2022-12-07T04:51:29;11.30;41.10
418;DHT22;49;48.530;9.200;2022-12-07T04:53:57;10.20;45.20
418;DHT22;49;48.530;9.200;2022-12-07T04:56:25;10.50;47.20
418;DHT22;49;48.530;9.200;2022-12-07T04:58:53;10.80;57.80
418;DHT22;49;48.530;9.200;2022-12-07T05:01:22;11.00;41.30
418;DHT22;49;48.530;9.200;2022-12-07T05:03:49;10.20;46.10
418;DHT22;49;48.530;9.200;2022-12-07T05:06:16;10.20;50.60
418;DHT22;49;48.530;9.200;2022-12-07T05:08:43;10.50;55.80
418;DHT22;49;48.530;9.200;2022-12-07T05:11:13;11.10;49.20
418;DHT22;49;48.530;9.200;2022-12-07T05:14:00;11.10;45.00
418;DHT22;49;48.530;9.200;2022-12-07T05:16:27;11.10;46.90
418;DHT22;49;48.530;9.200;2022-12-07T05:19:00;11.40;48.10
418;DHT22;49;48.530;9.200;2022-12-07T05:21:27;11.10;42.60
418;DHT22;49;48.530;9.200;2022-12-07T05:23:54;10.90;42.70
418;DHT22;49;48.530;9.200;2022-12-07T05:26:22;10.60;41.80
418;DHT22;49;48.530;9.200;2022-12-07T05:28:53;10.00;48.40
418;DHT22;49;48.530;9.200;2022-12-07T05:31:21;10.00;46.90
418;DHT22;49;48.530;9.200;2022-12-07T05:33:48;10.10;58.00
418;DHT22;49;48.530;9.200;2022-12-07T05:36:15;10.80;55.50
418;DHT22;49;48.530;9.200;2022-12-07T05:38:42;11.40;59.20
418;DHT22;49;48.530;9.200;2022-12-07T05:41:13;11.80;52.50
418;DHT22;49;48.530;9.200;2022-12-07T05:43:55;11.70;51.10
418;DHT22;49;48.530;9.200;2022-12-07T05:46:23;11.80;50.00
418;DHT22;49;48.530;9.200;2022-12-07T05:48:50;12.00;53.00
418;DHT22;49;48.530;9.200;2022-12-07T05:51:17;12.30;50.30
418;DHT22;49;48.530;9.200;2022-12-07T05:53:44;12.30;49.90
418;DHT22;49;48.530;9.200;2022-12-07T05:56:11;12.40;50.90
418;DHT22;49;48.530;9.200;2022-12-07T05:58:38;12.10;37.30
418;DHT22;49;48.530;9.200;2022-12-07T06:01:25;11.40;38.70
418;DHT22;49;48.530;9.200;2022-12-07T06:03:52;10.70;38.90
418;DHT22;49;48.530;9.200;2022-12-07T06:06:19;9.80;50.80
418;DHT22;49;48.530;9.200;2022-12-07T06:08:46;9.80;51.60
418;DHT22;49;48.530;9.200;2022-12-07T06:11:13;9.80;46.00
418;DHT22;49;48.530;9.200;2022-12-07T06:13:57;8.40;51.50
418;DHT22;49;48.530;9.200;2022-12-07T06:16:26;7.20;59.30
418;DHT22;49;48.530;9.200;2022-12-07T06:18:52;8.20;75.10
418;DHT22;49;48.530;9.200;2022-12-07T06:21:19;9.50;72.90
418;DHT22;49;48.530;9.200;2022-12-07T06:23:46;10.30;68.60
418;DHT22;49;48.530;9.200;2022-12-07T06:26:13;10.60;63.70
418;DHT22;49;48.530;9.200;2022-12-07T06:28:40;10.60;59.70
418;DHT22;49;48.530;9.200;2022-12-07T06:31:07;10.40;55.00
418;DHT22;49;48.530;9.200;2022-12-07T06:33:36;10.20;60.40
418;DHT22;49;48.530;9.200;2022-12-07T06:36:03;10.60;65.40
418;DHT22;49;48.530;9.200;2022-12-07T06:38:30;10.80;54.40
418;DHT22;49;48.530;9.200;2022-12-07T06:40:57;11.30;53.90
418;DHT22;49;48.530;9.200;2022-12-07T06:43:24;11.50;57.20
418;DHT22;49;48.530;9.200;2022-12-07T06:45:52;11.70;55.40
418;DHT22;49;48.530;9.200;2022-12-07T06:48:19;11.80;51.20
418;DHT22;49;48.530;9.200;2022-12-07T06:50:48;11.60;55.70
418;DHT22;49;48.530;9.200;2022-12-07T06:53:15;11.80;56.70
418;DHT22;49;48.530;9.200;2022-12-07T06:55:42;12.10;56.10
418;DHT22;49;48.530;9.200;2022-12-07T06:58:09;12.50;54.70
418;DHT22;49;48.530;9.200;2022-12-07T07:00:36;12.60;50.70
418;DHT22;49;48.530;9.200;2022-12-07T07:03:03;12.60;49.00
418;DHT22;49;48.530;9.200;2022-12-07T07:05:30;12.30;50.80
418;DHT22;49;48.530;9.200;2022-12-07T07:07:58;12.20;50.90
418;DHT22;49;48.530;9.200;2022-12-07T07:10:25;12.30;52.80
418;DHT22;49;48.530;9.200;2022-12-07T07:12:52;12.60;50.80
418;DHT22;49;48.530;9.200;2022-12-07T07:15:19;12.60;44.50
418;DHT22;49;48.530;9.200;2022-12-07T07:17:46;12.20;44.60
418;DHT22;49;48.530;9.200;2022-12-07T07:20:13;12.40;50.10
418;DHT22;49;48.530;9.200;2022-12-07T07:22:40;12.40;46.80
418;DHT22;49;48.530;9.200;2022-12-07T07:25:08;12.20;47.30
418;DHT22;49;48.530;9.200;2022-12-07T07:27:35;12.50;51.30
418;DHT22;49;48.530;9.200;2022-12-07T07:30:02;12.50;39.40
418;DHT22;49;48.530;9.200;2022-12-07T07:32:29;12.00;35.60
418;DHT22;49;48.530;9.200;2022-12-07T07:34:56;10.60;47.40
418;DHT22;49;48.530;9.200;2022-12-07T07:37:23;10.50;46.50
418;DHT22;49;48.530;9.200;2022-12-07T07:39:50;10.20;46.40
418;DHT22;49;48.530;9.200;2022-12-07T07:42:19;10.20;49.70
418;DHT22;49;48.530;9.200;2022-12-07T07:44:46;9.90;46.80
418;DHT22;49;48.530;9.200;2022-12-07T07:47:13;9.10;49.80
418;DHT22;49;48.530;9.200;2022-12-07T07:49:40;9.00;52.80
418;DHT22;49;48.530;9.200;2022-12-07T07:52:06;9.30;61.80
418;DHT22;49;48.530;9.200;2022-12-07T07:54:33;10.30;63.40
418;DHT22;49;48.530;9.200;2022-12-07T07:57:00;10.90;58.20
418;DHT22;49;48.530;9.200;2022-12-07T07:59:31;10.90;45.80
418;DHT22;49;48.530;9.200;2022-12-07T08:02:01;10.70;41.70
418;DHT22;49;48.530;9.200;2022-12-07T08:04:28;10.80;45.60
418;DHT22;49;48.530;9.200;2022-12-07T08:06:54;10.50;41.60
418;DHT22;49;48.530;9.200;2022-12-07T08:09:21;10.90;49.30
418;DHT22;49;48.530;9.200;2022-12-07T08:11:48;11.30;41.10
418;DHT22;49;48.530;9.200;2022-12-07T08:14:15;11.10;44.40
418;DHT22;49;48.530;9.200;2022-12-07T08:16:44;11.10;47.20
418;DHT22;49;48.530;9.200;2022-12-07T08:19:11;11.10;48.30
418;DHT22;49;48.530;9.200;2022-12-07T08:21:37;11.60;51.80
418;DHT22;49;48.530;9.200;2022-12-07T08:24:05;11.50;35.60
418;DHT22;49;48.530;9.200;2022-12-07T08:26:32;11.10;37.40
418;DHT22;49;48.530;9.200;2022-12-07T08:28:59;10.90;44.90
418;DHT22;49;48.530;9.200;2022-12-07T08:31:26;10.80;42.90
418;DHT22;49;48.530;9.200;2022-12-07T08:33:54;10.90;39.40
418;DHT22;49;48.530;9.200;2022-12-07T08:36:22;11.00;40.50
418;DHT22;49;48.530;9.200;2022-12-07T08:38:49;11.20;42.70
418;DHT22;49;48.530;9.200;2022-12-07T08:41:16;11.20;36.60
418;DHT22;49;48.530;9.200;2022-12-07T08:43:44;10.80;38.10
418;DHT22;49;48.530;9.200;2022-12-07T08:46:15;10.90;45.10
418;DHT22;49;48.530;9.200;2022-12-07T08:48:46;11.40;47.10
418;DHT22;49;48.530;9.200;2022-12-07T08:51:18;11.50;41.40
418;DHT22;49;48.530;9.200;2022-12-07T08:53:45;11.00;44.90
418;DHT22;49;48.530;9.200;2022-12-07T08:56:12;10.50;50.60
418;DHT22;49;48.530;9.200;2022-12-07T08:58:40;10.60;44.40
418;DHT22;49;48.530;9.200;2022-12-07T09:01:08;10.80;42.30
418;DHT22;49;48.530;9.200;2022-12-07T09:03:35;11.00;42.90
418;DHT22;49;48.530;9.200;2022-12-07T09:06:02;10.90;40.10
418;DHT22;49;48.530;9.200;2022-12-07T09:08:34;11.00;40.20
418;DHT22;49;48.530;9.200;2022-12-07T09:11:03;10.90;43.10
418;DHT22;49;48.530;9.200;2022-12-07T09:13:30;10.40;44.80
418;DHT22;49;48.530;9.200;2022-12-07T09:15:57;10.20;49.70
418;DHT22;49;48.530;9.200;2022-12-07T09:18:24;10.10;48.20
418;DHT22;49;48.530;9.200;2022-12-07T09:20:50;9.90;47.10
418;DHT22;49;48.530;9.200;2022-12-07T09:23:17;10.00;45.60
418;DHT22;49;48.530;9.200;2022-12-07T09:25:46;9.90;46.50
418;DHT22;49;48.530;9.200;2022-12-07T09:28:13;9.50;50.10
418;DHT22;49;48.530;9.200;2022-12-07T09:30:45;9.40;54.00
418;DHT22;49;48.530;9.200;2022-12-07T09:33:12;9.90;50.40
418;DHT22;49;48.530;9.200;2022-12-07T09:35:44;10.50;50.70
418;DHT22;49;48.530;9.200;2022-12-07T09:38:12;11.10;48.40
418;DHT22;49;48.530;9.200;2022-12-07T09:40:39;11.00;42.00
418;DHT22;49;48.530;9.200;2022-12-07T09:43:13;10.60;40.80
418;DHT22;49;48.530;9.200;2022-12-07T09:45:42;10.60;44.30
418;DHT22;49;48.530;9.200;2022-12-07T09:48:16;10.80;47.90
418;DHT22;49;48.530;9.200;2022-12-07T09:50:45;10.90;49.40
418;DHT22;49;48.530;9.200;2022-12-07T09:53:15;10.80;46.40
418;DHT22;49;48.530;9.200;2022-12-07T09:55:43;11.20;46.90
418;DHT22;49;48.530;9.200;2022-12-07T09:58:19;11.40;37.40
418;DHT22;49;48.530;9.200;2022-12-07T10:00:47;11.70;42.40
418;DHT22;49;48.530;9.200;2022-12-07T10:03:14;11.80;38.30
418;DHT22;49;48.530;9.200;2022-12-07T10:05:44;11.40;36.70
418;DHT22;49;48.530;9.200;2022-12-07T10:08:12;11.30;40.10
418;DHT22;49;48.530;9.200;2022-12-07T10:10:41;11.00;38.70
418;DHT22;49;48.530;9.200;2022-12-07T10:13:10;10.90;37.60
418;DHT22;49;48.530;9.200;2022-12-07T10:15:54;11.30;38.60
418;DHT22;49;48.530;9.200;2022-12-07T10:18:26;11.70;49.80
418;DHT22;49;48.530;9.200;2022-12-07T10:21:12;12.20;36.60
418;DHT22;49;48.530;9.200;2022-12-07T10:23:41;11.30;35.20
418;DHT22;49;48.530;9.200;2022-12-07T10:26:36;10.80;36.90
418;DHT22;49;48.530;9.200;2022-12-07T10:29:14;10.60;35.00
418;DHT22;49;48.530;9.200;2022-12-07T10:31:44;10.70;42.60
418;DHT22;49;48.530;9.200;2022-12-07T10:34:21;11.00;34.60
418;DHT22;49;48.530;9.200;2022-12-07T10:36:50;11.50;32.60
418;DHT22;49;48.530;9.200;2022-12-07T10:39:18;11.10;34.80
418;DHT22;49;48.530;9.200;2022-12-07T10:41:56;11.10;34.40
418;DHT22;49;48.530;9.200;2022-12-07T10:44:25;11.80;37.00
418;DHT22;49;48.530;9.200;2022-12-07T10:47:16;12.20;41.10
418;DHT22;49;48.530;9.200;2022-12-07T10:53:04;11.70;29.80
418;DHT22;49;48.530;9.200;2022-12-07T10:55:46;12.20;33.60
418;DHT22;49;48.530;9.200;2022-12-07T10:58:29;12.40;28.10
418;DHT22;49;48.530;9.200;2022-12-07T11:01:03;12.60;38.50
418;DHT22;49;48.530;9.200;2022-12-07T11:03:53;12.80;29.50
418;DHT22;49;48.530;9.200;2022-12-07T11:06:29;12.30;28.00
418;DHT22;49;48.530;9.200;2022-12-07T11:09:16;11.70;29.10
418;DHT22;49;48.530;9.200;2022-12-07T11:11:56;11.30;29.60
418;DHT22;49;48.530;9.200;2022-12-07T11:14:34;11.20;30.00
418;DHT22;49;48.530;9.200;2022-12-07T11:17:05;11.20;39.50
418;DHT22;49;48.530;9.200;2022-12-07T11:19:54;11.70;37.00
418;DHT22;49;48.530;9.200;2022-12-07T11:22:34;12.50;43.50
418;DHT22;49;48.530;9.200;2022-12-07T11:25:21;12.70;29.70
418;DHT22;49;48.530;9.200;2022-12-07T11:27:57;12.70;27.00
418;DHT22;49;48.530;9.200;2022-12-07T11:30:31;12.90;26.90
418;DHT22;49;48.530;9.200;2022-12-07T11:33:12;13.20;28.60
418;DHT22;49;48.530;9.200;2022-12-07T11:35:57;13.30;28.90
418;DHT22;49;48.530;9.200;2022-12-07T11:38:35;13.40;25.00
418;DHT22;49;48.530;9.200;2022-12-07T11:41:05;13.30;30.00
418;DHT22;49;48.530;9.200;2022-12-07T11:43:53;13.50;25.50
418;DHT22;49;48.530;9.200;2022-12-07T11:46:25;13.60;25.70
418;DHT22;49;48.530;9.200;2022-12-07T11:48:57;13.60;24.30
418;DHT22;49;48.530;9.200;2022-12-07T11:51:28;13.10;30.50
418;DHT22;49;48.530;9.200;2022-12-07T11:54:01;13.20;23.20
418;DHT22;49;48.530;9.200;2022-12-07T11:56:30;13.10;24.10
418;DHT22;49;48.530;9.200;2022-12-07T11:59:07;12.50;24.00
418;DHT22;49;48.530;9.200;2022-12-07T12:01:45;11.60;26.70
418;DHT22;49;48.530;9.200;2022-12-07T12:04:27;11.40;29.60
418;DHT22;49;48.530;9.200;2022-12-07T12:06:57;11.50;31.50
418;DHT22;49;48.530;9.200;2022-12-07T12:09:27;11.50;28.40
418;DHT22;49;48.530;9.200;2022-12-07T12:12:12;12.10;34.70
418;DHT22;49;48.530;9.200;2022-12-07T12:14:48;12.70;26.60
418;DHT22;49;48.530;9.200;2022-12-07T12:17:51;12.70;24.80
418;DHT22;49;48.530;9.200;2022-12-07T12:20:22;12.30;28.30
418;DHT22;49;48.530;9.200;2022-12-07T12:22:55;11.90;28.00
418;DHT22;49;48.530;9.200;2022-12-07T12:25:29;12.20;27.60
418;DHT22;49;48.530;9.200;2022-12-07T12:27:58;12.40;26.30
418;DHT22;49;48.530;9.200;2022-12-07T12:30:34;12.60;24.70
418;DHT22;49;48.530;9.200;2022-12-07T12:33:05;12.70;23.50
418;DHT22;49;48.530;9.200;2022-12-07T12:35:34;12.50;26.80
418;DHT22;49;48.530;9.200;2022-12-07T12:38:27;12.80;25.10
418;DHT22;49;48.530;9.200;2022-12-07T12:40:56;12.70;27.00
418;DHT22;49;48.530;9.200;2022-12-07T12:43:44;12.60;26.10
418;DHT22;49;48.530;9.200;2022-12-07T12:49:40;13.00;34.20
418;DHT22;49;48.530;9.200;2022-12-07T12:55:49;12.90;23.40
418;DHT22;49;48.530;9.200;2022-12-07T12:58:32;13.20;28.50
418;DHT22;49;48.530;9.200;2022-12-07T13:01:36;13.40;27.80
418;DHT22;49;48.530;9.200;2022-12-07T13:07:03;13.40;22.60
418;DHT22;49;48.530;9.200;2022-12-07T13:09:32;13.30;25.20
418;DHT22;49;48.530;9.200;2022-12-07T13:12:03;13.30;27.20
418;DHT22;49;48.530;9.200;2022-12-07T13:14:58;13.20;26.30
418;DHT22;49;48.530;9.200;2022-12-07T13:17:57;13.30;25.00
418;DHT22;49;48.530;9.200;2022-12-07T13:20:59;13.60;35.50
418;DHT22;49;48.530;9.200;2022-12-07T13:23:29;13.60;25.40
418;DHT22;49;48.530;9.200;2022-12-07T13:26:04;13.60;36.80
418;DHT22;49;48.530;9.200;2022-12-07T13:28:39;13.80;25.50
418;DHT22;49;48.530;9.200;2022-12-07T13:31:33;13.80;29.90
418;DHT22;49;48.530;9.200;2022-12-07T13:34:01;13.30;25.00
418;DHT22;49;48.530;9.200;2022-12-07T13:36:31;13.30;27.80
418;DHT22;49;48.530;9.200;2022-12-07T13:39:16;13.60;29.70
418;DHT22;49;48.530;9.200;2022-12-07T13:41:48;13.90;25.60
418;DHT22;49;48.530;9.200;2022-12-07T13:44:18;14.00;32.50
418;DHT22;49;48.530;9.200;2022-12-07T13:46:50;13.90;28.20
418;DHT22;49;48.530;9.200;2022-12-07T13:49:22;14.00;27.70
418;DHT22;49;48.530;9.200;2022-12-07T13:51:50;13.90;28.10
418;DHT22;49;48.530;9.200;2022-12-07T13:54:17;14.00;28.40
418;DHT22;49;48.530;9.200;2022-12-07T13:56:48;14.00;27.10
418;DHT22;49;48.530;9.200;2022-12-07T13:59:21;14.00;30.20
418;DHT22;49;48.530;9.200;2022-12-07T14:01:50;13.90;25.10
418;DHT22;49;48.530;9.200;2022-12-07T14:04:19;13.80;23.60
418;DHT22;49;48.530;9.200;2022-12-07T14:06:51;13.40;26.70
418;DHT22;49;48.530;9.200;2022-12-07T14:09:20;13.60;26.70
418;DHT22;49;48.530;9.200;2022-12-07T14:11:49;13.50;25.40
418;DHT22;49;48.530;9.200;2022-12-07T14:14:20;13.40;25.70
418;DHT22;49;48.530;9.200;2022-12-07T14:17:01;13.60;33.90
418;DHT22;49;48.530;9.200;2022-12-07T14:19:46;13.60;27.70
418;DHT22;49;48.530;9.200;2022-12-07T14:22:41;13.40;25.30
418;DHT22;49;48.530;9.200;2022-12-07T14:25:18;13.20;33.20
418;DHT22;49;48.530;9.200;2022-12-07T14:27:51;13.40;26.90
418;DHT22;49;48.530;9.200;2022-12-07T14:30:24;13.30;34.70
418;DHT22;49;48.530;9.200;2022-12-07T14:32:53;13.60;35.50
418;DHT22;49;48.530;9.200;2022-12-07T14:35:21;13.90;32.80
418;DHT22;49;48.530;9.200;2022-12-07T14:37:51;13.70;27.40
418;DHT22;49;48.530;9.200;2022-12-07T14:40:21;13.90;35.30
418;DHT22;49;48.530;9.200;2022-12-07T14:42:51;13.90;28.70
418;DHT22;49;48.530;9.200;2022-12-07T14:45:22;13.90;29.40
418;DHT22;49;48.530;9.200;2022-12-07T14:47:53;13.70;32.90
418;DHT22;49;48.530;9.200;2022-12-07T14:50:20;13.80;29.90
418;DHT22;49;48.530;9.200;2022-12-07T14:52:51;13.80;30.90
418;DHT22;49;48.530;9.200;2022-12-07T14:55:28;13.60;27.70
418;DHT22;49;48.530;9.200;2022-12-07T14:57:56;13.60;31.80
418;DHT22;49;48.530;9.200;2022-12-07T15:00:26;13.90;32.30
418;DHT22;49;48.530;9.200;2022-12-07T15:02:54;13.70;27.10
418;DHT22;49;48.530;9.200;2022-12-07T15:05:22;13.80;31.50
418;DHT22;49;48.530;9.200;2022-12-07T15:07:50;13.80;33.50
418;DHT22;49;48.530;9.200;2022-12-07T15:10:20;14.00;34.10
418;DHT22;49;48.530;9.200;2022-12-07T15:12:47;14.00;33.00
418;DHT22;49;48.530;9.200;2022-12-07T15:15:14;13.90;33.60
418;DHT22;49;48.530;9.200;2022-12-07T15:17:44;13.90;28.70
418;DHT22;49;48.530;9.200;2022-12-07T15:20:12;13.70;33.00
418;DHT22;49;48.530;9.200;2022-12-07T15:22:42;13.60;28.50
418;DHT22;49;48.530;9.200;2022-12-07T15:25:13;13.60;31.10
418;DHT22;49;48.530;9.200;2022-12-07T15:27:41;13.40;33.30
418;DHT22;49;48.530;9.200;2022-12-07T15:30:09;13.30;28.40
418;DHT22;49;48.530;9.200;2022-12-07T15:32:36;13.20;32.80
418;DHT22;49;48.530;9.200;2022-12-07T15:35:05;13.00;28.70
418;DHT22;49;48.530;9.200;2022-12-07T15:37:32;12.90;27.30
418;DHT22;49;48.530;9.200;2022-12-07T15:39:59;12.70;29.30
418;DHT22;49;48.530;9.200;2022-12-07T15:42:26;12.70;37.90
418;DHT22;49;48.530;9.200;2022-12-07T15:44:53;12.90;38.10
418;DHT22;49;48.530;9.200;2022-12-07T15:47:35;13.30;40.70
418;DHT22;49;48.530;9.200;2022-12-07T15:50:06;13.10;32.90
418;DHT22;49;48.530;9.200;2022-12-07T15:52:34;12.80;27.60
418;DHT22;49;48.530;9.200;2022-12-07T15:55:01;12.70;37.20
418;DHT22;49;48.530;9.200;2022-12-07T15:57:28;12.60;29.50
418;DHT22;49;48.530;9.200;2022-12-07T15:59:55;12.80;38.00
418;DHT22;49;48.530;9.200;2022-12-07T16:02:22;13.00;36.40
418;DHT22;49;48.530;9.200;2022-12-07T16:04:49;12.80;34.80
418;DHT22;49;48.530;9.200;2022-12-07T16:07:18;12.80;30.70
418;DHT22;49;48.530;9.200;2022-12-07T16:09:46;12.90;36.60
418;DHT22;49;48.530;9.200;2022-12-07T16:12:13;12.70;32.30
418;DHT22;49;48.530;9.200;2022-12-07T16:14:40;12.50;29.90
418;DHT22;49;48.530;9.200;2022-12-07T16:17:09;12.40;39.00
418;DHT22;49;48.530;9.200;2022-12-07T16:19:37;12.60;36.60
418;DHT22;49;48.530;9.200;2022-12-07T16:22:04;12.60;33.60
418;DHT22;49;48.530;9.200;2022-12-07T16:24:32;12.50;28.30
418;DHT22;49;48.530;9.200;2022-12-07T16:26:59;12.30;29.40
418;DHT22;49;48.530;9.200;2022-12-07T16:29:26;12.30;37.50
418;DHT22;49;48.530;9.200;2022-12-07T16:31:53;12.30;31.30
418;DHT22;49;48.530;9.200;2022-12-07T16:34:23;12.10;29.00
418;DHT22;49;48.530;9.200;2022-12-07T16:36:50;11.70;28.40
418;DHT22;49;48.530;9.200;2022-12-07T16:39:17;11.50;29.30
418;DHT22;49;48.530;9.200;2022-12-07T16:41:45;11.20;29.50
418;DHT22;49;48.530;9.200;2022-12-07T16:44:12;11.00;30.20
418;DHT22;49;48.530;9.200;2022-12-07T16:46:40;10.80;30.50
418;DHT22;49;48.530;9.200;2022-12-07T16:49:11;10.80;30.10
418;DHT22;49;48.530;9.200;2022-12-07T16:51:40;10.90;30.70
418;DHT22;49;48.530;9.200;2022-12-07T16:54:09;10.90;31.10
418;DHT22;49;48.530;9.200;2022-12-07T16:56:37;10.90;30.20
418;DHT22;49;48.530;9.200;2022-12-07T16:59:05;10.90;30.50
418;DHT22;49;48.530;9.200;2022-12-07T17:01:32;10.70;30.80
418;DHT22;49;48.530;9.200;2022-12-07T17:04:02;10.70;31.00
418;DHT22;49;48.530;9.200;2022-12-07T17:06:29;10.50;31.50
418;DHT22;49;48.530;9.200;2022-12-07T17:08:57;10.30;32.10
418;DHT22;49;48.530;9.200;2022-12-07T17:11:26;10.40;32.70
418;DHT22;49;48.530;9.200;2022-12-07T17:13:55;10.40;37.20
418;DHT22;49;48.530;9.200;2022-12-07T17:16:41;10.20;33.60
418;DHT22;49;48.530;9.200;2022-12-07T17:19:10;10.00;34.60
418;DHT22;49;48.530;9.200;2022-12-07T17:21:38;10.00;34.60
418;DHT22;49;48.530;9.200;2022-12-07T17:24:09;10.30;39.20
418;DHT22;49;48.530;9.200;2022-12-07T17:26:37;10.40;43.40
418;DHT22;49;48.530;9.200;2022-12-07T17:29:05;10.40;40.40
418;DHT22;49;48.530;9.200;2022-12-07T17:31:33;10.40;35.80
418;DHT22;49;48.530;9.200;2022-12-07T17:34:02;10.30;35.70